sensor_id;sensor_type;location;lat;lon;timestamp;pressure;altitude;pressure_sealevel;temperature
27715;BMP280;16051;53.024;8.630;2022-11-04T00:02:21;99879.44;;;11.64
27715;BMP280;16051;53.024;8.630;2022-11-04T00:06:24;99870.63;;;11.65
27715;BMP280;16051;53.024;8.630;2022-11-04T00:10:26;99865.84;;;11.60
27715;BMP280;16051;53.024;8.630;2022-11-04T00:14:44;99867.56;;;11.58
27715;BMP280;16051;53.024;8.630;2022-11-04T00:18:46;99859.28;;;11.58
27715;BMP280;16051;53.024;8.630;2022-11-04T00:22:49;99849.72;;;11.53
27715;BMP280;16051;53.024;8.630;2022-11-04T00:27:09;99833.63;;;11.52
27715;BMP280;16051;53.024;8.630;2022-11-04T00:31:30;99827.09;;;11.55
27715;BMP280;16051;53.024;8.630;2022-11-04T00:35:51;99845.97;;;11.56
27715;BMP280;16051;53.024;8.630;2022-11-04T00:39:53;99870.63;;;11.60
27715;BMP280;16051;53.024;8.630;2022-11-04T00:44:15;99875.16;;;11.63
27715;BMP280;16051;53.024;8.630;2022-11-04T00:48:18;99875.13;;;11.57
27715;BMP280;16051;53.024;8.630;2022-11-04T00:52:20;99876.91;;;11.60
27715;BMP280;16051;53.024;8.630;2022-11-04T00:56:23;99873.91;;;11.64
27715;BMP280;16051;53.024;8.630;2022-11-04T01:00:31;99880.19;;;11.64
27715;BMP280;16051;53.024;8.630;2022-11-04T01:04:35;99883.44;;;11.68
27715;BMP280;16051;53.024;8.630;2022-11-04T01:08:37;99894.56;;;11.74
27715;BMP280;16051;53.024;8.630;2022-11-04T01:12:39;99880.50;;;11.72
27715;BMP280;16051;53.024;8.630;2022-11-04T01:16:42;99883.03;;;11.75
27715;BMP280;16051;53.024;8.630;2022-11-04T01:20:45;99845.28;;;11.72
27715;BMP280;16051;53.024;8.630;2022-11-04T01:24:50;99840.19;;;11.65
27715;BMP280;16051;53.024;8.630;2022-11-04T01:28:55;99848.00;;;11.67
27715;BMP280;16051;53.024;8.630;2022-11-04T01:32:58;99854.78;;;11.66
27715;BMP280;16051;53.024;8.630;2022-11-04T01:37:01;99858.78;;;11.65
27715;BMP280;16051;53.024;8.630;2022-11-04T01:41:05;99871.13;;;11.64
27715;BMP280;16051;53.024;8.630;2022-11-04T01:45:13;99871.13;;;11.64
27715;BMP280;16051;53.024;8.630;2022-11-04T01:49:25;99866.59;;;11.66
27715;BMP280;16051;53.024;8.630;2022-11-04T01:53:32;99853.03;;;11.68
27715;BMP280;16051;53.024;8.630;2022-11-04T01:57:41;99837.94;;;11.69
27715;BMP280;16051;53.024;8.630;2022-11-04T02:01:50;99849.00;;;11.69
27715;BMP280;16051;53.024;8.630;2022-11-04T02:05:53;99843.78;;;11.71
27715;BMP280;16051;53.024;8.630;2022-11-04T02:09:57;99846.03;;;11.73
27715;BMP280;16051;53.024;8.630;2022-11-04T02:14:00;99851.00;;;11.69
27715;BMP280;16051;53.024;8.630;2022-11-04T02:18:28;99855.78;;;11.63
27715;BMP280;16051;53.024;8.630;2022-11-04T02:28:28;99892.28;;;11.72
27715;BMP280;16051;53.024;8.630;2022-11-04T02:32:57;99905.81;;;11.65
27715;BMP280;16051;53.024;8.630;2022-11-04T02:37:13;99897.75;;;11.56
27715;BMP280;16051;53.024;8.630;2022-11-04T02:41:37;99902.56;;;11.61
27715;BMP280;16051;53.024;8.630;2022-11-04T02:45:43;99907.81;;;11.53
27715;BMP280;16051;53.024;8.630;2022-11-04T02:49:52;99925.88;;;11.54
27715;BMP280;16051;53.024;8.630;2022-11-04T02:54:04;99928.66;;;11.54
27715;BMP280;16051;53.024;8.630;2022-11-04T02:58:17;99938.75;;;11.57
27715;BMP280;16051;53.024;8.630;2022-11-04T03:02:27;99942.69;;;11.45
27715;BMP280;16051;53.024;8.630;2022-11-04T03:06:34;99953.47;;;11.38
27715;BMP280;16051;53.024;8.630;2022-11-04T03:10:42;99944.16;;;11.35
27715;BMP280;16051;53.024;8.630;2022-11-04T03:14:50;99955.69;;;11.33
27715;BMP280;16051;53.024;8.630;2022-11-04T03:19:24;99953.44;;;11.32
27715;BMP280;16051;53.024;8.630;2022-11-04T03:23:29;99979.78;;;11.27
27715;BMP280;16051;53.024;8.630;2022-11-04T03:27:40;99965.44;;;11.23
27715;BMP280;16051;53.024;8.630;2022-11-04T03:31:51;99967.44;;;11.23
27715;BMP280;16051;53.024;8.630;2022-11-04T03:35:55;99971.97;;;11.26
27715;BMP280;16051;53.024;8.630;2022-11-04T03:39:59;99982.78;;;11.24
27715;BMP280;16051;53.024;8.630;2022-11-04T03:44:03;99993.03;;;11.18
27715;BMP280;16051;53.024;8.630;2022-11-04T03:48:40;100000.59;;;11.17
27715;BMP280;16051;53.024;8.630;2022-11-04T03:52:45;100004.03;;;11.07
27715;BMP280;16051;53.024;8.630;2022-11-04T03:57:22;100013.78;;;11.02
27715;BMP280;16051;53.024;8.630;2022-11-04T04:01:32;100027.16;;;11.09
27715;BMP280;16051;53.024;8.630;2022-11-04T04:05:47;100018.81;;;11.04
27715;BMP280;16051;53.024;8.630;2022-11-04T04:09:58;100036.91;;;11.05
27715;BMP280;16051;53.024;8.630;2022-11-04T04:14:19;100051.38;;;10.94
27715;BMP280;16051;53.024;8.630;2022-11-04T04:18:42;100057.00;;;11.05
27715;BMP280;16051;53.024;8.630;2022-11-04T04:22:49;100060.31;;;11.09
27715;BMP280;16051;53.024;8.630;2022-11-04T04:26:55;100062.56;;;11.11
27715;BMP280;16051;53.024;8.630;2022-11-04T04:31:19;100066.63;;;11.15
27715;BMP280;16051;53.024;8.630;2022-11-04T04:35:43;100077.38;;;11.08
27715;BMP280;16051;53.024;8.630;2022-11-04T04:39:52;100069.34;;;11.10
27715;BMP280;16051;53.024;8.630;2022-11-04T04:44:20;100070.00;;;11.25
27715;BMP280;16051;53.024;8.630;2022-11-04T04:48:43;100078.47;;;11.21
27715;BMP280;16051;53.024;8.630;2022-11-04T04:52:48;100072.03;;;11.30
27715;BMP280;16051;53.024;8.630;2022-11-04T04:56:50;100077.22;;;11.22
27715;BMP280;16051;53.024;8.630;2022-11-04T05:00:52;100083.31;;;11.26
27715;BMP280;16051;53.024;8.630;2022-11-04T05:04:56;100076.69;;;11.18
27715;BMP280;16051;53.024;8.630;2022-11-04T05:08:59;100096.56;;;11.17
27715;BMP280;16051;53.024;8.630;2022-11-04T05:13:01;100098.22;;;11.09
27715;BMP280;16051;53.024;8.630;2022-11-04T05:17:21;100101.75;;;11.09
27715;BMP280;16051;53.024;8.630;2022-11-04T05:21:30;100116.34;;;11.10
27715;BMP280;16051;53.024;8.630;2022-11-04T05:25:32;100105.00;;;11.08
27715;BMP280;16051;53.024;8.630;2022-11-04T05:29:34;100111.28;;;11.08
27715;BMP280;16051;53.024;8.630;2022-11-04T05:33:37;100114.25;;;11.05
27715;BMP280;16051;53.024;8.630;2022-11-04T05:37:40;100111.47;;;10.99
27715;BMP280;16051;53.024;8.630;2022-11-04T05:41:54;100110.81;;;11.10
27715;BMP280;16051;53.024;8.630;2022-11-04T05:45:58;100114.34;;;11.10
27715;BMP280;16051;53.024;8.630;2022-11-04T05:50:00;100131.66;;;11.11
27715;BMP280;16051;53.024;8.630;2022-11-04T05:54:04;100130.91;;;11.10
27715;BMP280;16051;53.024;8.630;2022-11-04T05:58:06;100139.72;;;11.14
27715;BMP280;16051;53.024;8.630;2022-11-04T06:02:17;100158.91;;;11.23
27715;BMP280;16051;53.024;8.630;2022-11-04T06:06:20;100165.13;;;11.18
27715;BMP280;16051;53.024;8.630;2022-11-04T06:10:24;100163.63;;;11.17
27715;BMP280;16051;53.024;8.630;2022-11-04T06:14:26;100167.63;;;11.16
27715;BMP280;16051;53.024;8.630;2022-11-04T06:18:28;100165.25;;;11.04
27715;BMP280;16051;53.024;8.630;2022-11-04T06:22:31;100178.19;;;10.92
27715;BMP280;16051;53.024;8.630;2022-11-04T06:26:47;100207.97;;;10.82
27715;BMP280;16051;53.024;8.630;2022-11-04T06:30:49;100207.50;;;10.84
27715;BMP280;16051;53.024;8.630;2022-11-04T06:34:52;100210.25;;;10.84
27715;BMP280;16051;53.024;8.630;2022-11-04T06:38:54;100207.28;;;10.88
27715;BMP280;16051;53.024;8.630;2022-11-04T06:42:58;100211.50;;;10.83
27715;BMP280;16051;53.024;8.630;2022-11-04T06:47:00;100223.63;;;10.71
27715;BMP280;16051;53.024;8.630;2022-11-04T06:51:03;100215.78;;;10.84
27715;BMP280;16051;53.024;8.630;2022-11-04T06:55:07;100252.44;;;10.84
27715;BMP280;16051;53.024;8.630;2022-11-04T06:59:15;100264.19;;;10.79
27715;BMP280;16051;53.024;8.630;2022-11-04T07:03:18;100274.00;;;10.80
27715;BMP280;16051;53.024;8.630;2022-11-04T07:07:20;100278.75;;;10.80
27715;BMP280;16051;53.024;8.630;2022-11-04T07:11:23;100286.75;;;10.78
27715;BMP280;16051;53.024;8.630;2022-11-04T07:15:42;100300.66;;;10.83
27715;BMP280;16051;53.024;8.630;2022-11-04T07:19:44;100308.06;;;10.92
27715;BMP280;16051;53.024;8.630;2022-11-04T07:23:46;100312.47;;;10.84
27715;BMP280;16051;53.024;8.630;2022-11-04T07:27:48;100316.75;;;10.85
27715;BMP280;16051;53.024;8.630;2022-11-04T07:31:52;100315.91;;;10.79
27715;BMP280;16051;53.024;8.630;2022-11-04T07:36:23;100326.13;;;10.73
27715;BMP280;16051;53.024;8.630;2022-11-04T07:40:25;100338.13;;;10.70
27715;BMP280;16051;53.024;8.630;2022-11-04T07:44:27;100342.06;;;10.63
27715;BMP280;16051;53.024;8.630;2022-11-04T07:48:30;100361.84;;;10.62
27715;BMP280;16051;53.024;8.630;2022-11-04T07:52:32;100377.59;;;10.56
27715;BMP280;16051;53.024;8.630;2022-11-04T07:56:35;100391.19;;;10.59
27715;BMP280;16051;53.024;8.630;2022-11-04T08:00:39;100380.22;;;10.65
27715;BMP280;16051;53.024;8.630;2022-11-04T08:04:42;100364.16;;;10.63
27715;BMP280;16051;53.024;8.630;2022-11-04T08:08:45;100376.09;;;10.75
27715;BMP280;16051;53.024;8.630;2022-11-04T08:12:49;100363.34;;;10.77
27715;BMP280;16051;53.024;8.630;2022-11-04T08:16:52;100366.56;;;10.76
27715;BMP280;16051;53.024;8.630;2022-11-04T08:20:57;100372.19;;;10.81
27715;BMP280;16051;53.024;8.630;2022-11-04T08:24:59;100375.63;;;10.76
27715;BMP280;16051;53.024;8.630;2022-11-04T08:29:05;100370.38;;;10.78
27715;BMP280;16051;53.024;8.630;2022-11-04T08:33:08;100370.31;;;10.93
27715;BMP280;16051;53.024;8.630;2022-11-04T08:37:15;100366.22;;;11.03
27715;BMP280;16051;53.024;8.630;2022-11-04T08:41:52;100386.09;;;11.07
27715;BMP280;16051;53.024;8.630;2022-11-04T08:45:54;100398.00;;;11.13
27715;BMP280;16051;53.024;8.630;2022-11-04T08:49:57;100400.25;;;11.15
27715;BMP280;16051;53.024;8.630;2022-11-04T08:54:00;100397.84;;;11.22
27715;BMP280;16051;53.024;8.630;2022-11-04T08:58:05;100399.59;;;11.20
27715;BMP280;16051;53.024;8.630;2022-11-04T09:02:13;100405.72;;;11.29
27715;BMP280;16051;53.024;8.630;2022-11-04T09:06:20;100410.38;;;11.38
27715;BMP280;16051;53.024;8.630;2022-11-04T09:10:24;100428.44;;;11.54
27715;BMP280;16051;53.024;8.630;2022-11-04T09:14:36;100429.31;;;11.65
27715;BMP280;16051;53.024;8.630;2022-11-04T09:18:39;100434.28;;;11.61
27715;BMP280;16051;53.024;8.630;2022-11-04T09:22:41;100450.56;;;11.74
27715;BMP280;16051;53.024;8.630;2022-11-04T09:26:45;100467.44;;;11.76
27715;BMP280;16051;53.024;8.630;2022-11-04T09:30:55;100472.50;;;11.77
27715;BMP280;16051;53.024;8.630;2022-11-04T09:34:57;100466.53;;;11.84
27715;BMP280;16051;53.024;8.630;2022-11-04T09:38:59;100452.63;;;11.99
27715;BMP280;16051;53.024;8.630;2022-11-04T09:43:22;100464.47;;;12.25
27715;BMP280;16051;53.024;8.630;2022-11-04T09:47:32;100441.44;;;12.40
27715;BMP280;16051;53.024;8.630;2022-11-04T09:51:36;100458.41;;;12.53
27715;BMP280;16051;53.024;8.630;2022-11-04T09:55:49;100468.34;;;12.65
27715;BMP280;16051;53.024;8.630;2022-11-04T09:59:57;100468.38;;;12.70
27715;BMP280;16051;53.024;8.630;2022-11-04T10:04:18;100472.91;;;12.68
27715;BMP280;16051;53.024;8.630;2022-11-04T10:08:54;100469.53;;;12.90
27715;BMP280;16051;53.024;8.630;2022-11-04T10:13:13;100466.06;;;12.95
27715;BMP280;16051;53.024;8.630;2022-11-04T10:17:43;100473.44;;;12.72
27715;BMP280;16051;53.024;8.630;2022-11-04T10:22:02;100491.53;;;12.67
27715;BMP280;16051;53.024;8.630;2022-11-04T10:26:14;100492.59;;;12.44
27715;BMP280;16051;53.024;8.630;2022-11-04T10:30:19;100492.53;;;12.39
27715;BMP280;16051;53.024;8.630;2022-11-04T10:34:35;100493.50;;;12.61
27715;BMP280;16051;53.024;8.630;2022-11-04T10:38:43;100478.41;;;12.99
27715;BMP280;16051;53.024;8.630;2022-11-04T10:42:46;100475.19;;;13.06
27715;BMP280;16051;53.024;8.630;2022-11-04T10:47:05;100490.38;;;13.11
27715;BMP280;16051;53.024;8.630;2022-11-04T10:51:09;100503.13;;;13.03
27715;BMP280;16051;53.024;8.630;2022-11-04T10:55:27;100523.59;;;13.05
27715;BMP280;16051;53.024;8.630;2022-11-04T10:59:51;100533.91;;;13.05
27715;BMP280;16051;53.024;8.630;2022-11-04T11:03:54;100538.41;;;13.02
27715;BMP280;16051;53.024;8.630;2022-11-04T11:08:01;100545.34;;;12.87
27715;BMP280;16051;53.024;8.630;2022-11-04T11:12:16;100538.94;;;12.75
27715;BMP280;16051;53.024;8.630;2022-11-04T11:16:26;100536.38;;;12.66
27715;BMP280;16051;53.024;8.630;2022-11-04T11:20:30;100536.88;;;12.70
27715;BMP280;16051;53.024;8.630;2022-11-04T11:24:38;100555.56;;;12.75
27715;BMP280;16051;53.024;8.630;2022-11-04T11:28:47;100542.63;;;12.92
27715;BMP280;16051;53.024;8.630;2022-11-04T11:32:55;100547.00;;;13.04
27715;BMP280;16051;53.024;8.630;2022-11-04T11:37:00;100555.44;;;13.15
27715;BMP280;16051;53.024;8.630;2022-11-04T11:41:26;100561.03;;;13.21
27715;BMP280;16051;53.024;8.630;2022-11-04T11:45:38;100564.09;;;13.28
27715;BMP280;16051;53.024;8.630;2022-11-04T11:49:40;100566.84;;;13.23
27715;BMP280;16051;53.024;8.630;2022-11-04T11:58:50;100573.09;;;12.92
27715;BMP280;16051;53.024;8.630;2022-11-04T12:02:59;100576.38;;;12.91
27715;BMP280;16051;53.024;8.630;2022-11-04T12:07:28;100592.28;;;12.96
27715;BMP280;16051;53.024;8.630;2022-11-04T12:11:48;100600.56;;;12.90
27715;BMP280;16051;53.024;8.630;2022-11-04T12:16:14;100596.78;;;12.88
27715;BMP280;16051;53.024;8.630;2022-11-04T12:20:36;100586.97;;;12.92
27715;BMP280;16051;53.024;8.630;2022-11-04T12:24:54;100587.06;;;13.03
27715;BMP280;16051;53.024;8.630;2022-11-04T12:33:46;100591.53;;;13.21
27715;BMP280;16051;53.024;8.630;2022-11-04T12:38:04;100586.06;;;13.32
27715;BMP280;16051;53.024;8.630;2022-11-04T12:42:17;100590.03;;;13.20
27715;BMP280;16051;53.024;8.630;2022-11-04T12:46:31;100591.53;;;13.21
27715;BMP280;16051;53.024;8.630;2022-11-04T12:50:55;100574.56;;;13.13
27715;BMP280;16051;53.024;8.630;2022-11-04T12:55:23;100575.97;;;13.03
27715;BMP280;16051;53.024;8.630;2022-11-04T13:00:08;100562.28;;;13.20
27715;BMP280;16051;53.024;8.630;2022-11-04T13:04:17;100573.72;;;13.33
27715;BMP280;16051;53.024;8.630;2022-11-04T13:08:31;100577.56;;;13.41
27715;BMP280;16051;53.024;8.630;2022-11-04T13:12:38;100594.06;;;13.24
27715;BMP280;16051;53.024;8.630;2022-11-04T13:16:52;100600.13;;;13.23
27715;BMP280;16051;53.024;8.630;2022-11-04T13:21:02;100608.25;;;13.32
27715;BMP280;16051;53.024;8.630;2022-11-04T13:25:16;100610.97;;;14.00
27715;BMP280;16051;53.024;8.630;2022-11-04T13:29:28;100621.03;;;14.51
27715;BMP280;16051;53.024;8.630;2022-11-04T13:33:45;100626.97;;;15.03
27715;BMP280;16051;53.024;8.630;2022-11-04T13:38:05;100626.97;;;14.98
27715;BMP280;16051;53.024;8.630;2022-11-04T13:42:51;100636.06;;;14.93
27715;BMP280;16051;53.024;8.630;2022-11-04T13:47:22;100637.81;;;14.85
27715;BMP280;16051;53.024;8.630;2022-11-04T13:51:47;100630.28;;;15.24
27715;BMP280;16051;53.024;8.630;2022-11-04T13:56:02;100618.88;;;15.72
27715;BMP280;16051;53.024;8.630;2022-11-04T14:00:22;100624.63;;;16.13
27715;BMP280;16051;53.024;8.630;2022-11-04T14:04:29;100634.75;;;15.99
27715;BMP280;16051;53.024;8.630;2022-11-04T14:08:32;100644.13;;;16.02
27715;BMP280;16051;53.024;8.630;2022-11-04T14:12:35;100646.94;;;15.96
27715;BMP280;16051;53.024;8.630;2022-11-04T14:17:01;100651.31;;;15.58
27715;BMP280;16051;53.024;8.630;2022-11-04T14:21:10;100665.16;;;15.03
27715;BMP280;16051;53.024;8.630;2022-11-04T14:25:24;100665.03;;;14.58
27715;BMP280;16051;53.024;8.630;2022-11-04T14:29:27;100677.66;;;14.11
27715;BMP280;16051;53.024;8.630;2022-11-04T14:33:38;100690.97;;;13.96
27715;BMP280;16051;53.024;8.630;2022-11-04T14:37:40;100694.94;;;13.90
27715;BMP280;16051;53.024;8.630;2022-11-04T14:41:57;100691.06;;;13.76
27715;BMP280;16051;53.024;8.630;2022-11-04T14:46:01;100700.38;;;13.73
27715;BMP280;16051;53.024;8.630;2022-11-04T14:50:11;100708.41;;;13.65
27715;BMP280;16051;53.024;8.630;2022-11-04T14:54:23;100713.19;;;13.65
27715;BMP280;16051;53.024;8.630;2022-11-04T14:58:29;100716.69;;;13.60
27715;BMP280;16051;53.024;8.630;2022-11-04T15:02:32;100713.38;;;13.56
27715;BMP280;16051;53.024;8.630;2022-11-04T15:06:36;100725.22;;;13.56
27715;BMP280;16051;53.024;8.630;2022-11-04T15:11:06;100737.94;;;13.43
27715;BMP280;16051;53.024;8.630;2022-11-04T15:15:33;100748.69;;;13.29
27715;BMP280;16051;53.024;8.630;2022-11-04T15:19:54;100754.38;;;13.20
27715;BMP280;16051;53.024;8.630;2022-11-04T15:23:59;100760.97;;;13.03
27715;BMP280;16051;53.024;8.630;2022-11-04T15:28:02;100783.28;;;12.94
27715;BMP280;16051;53.024;8.630;2022-11-04T15:32:04;100783.75;;;12.92
27715;BMP280;16051;53.024;8.630;2022-11-04T15:36:15;100786.41;;;12.81
27715;BMP280;16051;53.024;8.630;2022-11-04T15:40:22;100787.56;;;12.74
27715;BMP280;16051;53.024;8.630;2022-11-04T15:44:27;100785.78;;;12.71
27715;BMP280;16051;53.024;8.630;2022-11-04T15:48:32;100785.00;;;12.71
27715;BMP280;16051;53.024;8.630;2022-11-04T15:52:45;100783.81;;;12.57
27715;BMP280;16051;53.024;8.630;2022-11-04T15:56:53;100786.09;;;12.59
27715;BMP280;16051;53.024;8.630;2022-11-04T16:00:57;100795.75;;;12.63
27715;BMP280;16051;53.024;8.630;2022-11-04T16:05:06;100796.50;;;12.64
27715;BMP280;16051;53.024;8.630;2022-11-04T16:09:22;100798.34;;;12.52
27715;BMP280;16051;53.024;8.630;2022-11-04T16:13:48;100813.56;;;12.42
27715;BMP280;16051;53.024;8.630;2022-11-04T16:17:50;100815.22;;;12.34
27715;BMP280;16051;53.024;8.630;2022-11-04T16:22:00;100826.97;;;12.29
27715;BMP280;16051;53.024;8.630;2022-11-04T16:26:11;100822.03;;;12.18
27715;BMP280;16051;53.024;8.630;2022-11-04T16:30:20;100824.63;;;12.07
27715;BMP280;16051;53.024;8.630;2022-11-04T16:34:22;100840.28;;;11.96
27715;BMP280;16051;53.024;8.630;2022-11-04T16:38:25;100845.91;;;11.87
27715;BMP280;16051;53.024;8.630;2022-11-04T16:42:27;100850.31;;;11.78
27715;BMP280;16051;53.024;8.630;2022-11-04T16:46:39;100845.53;;;11.79
27715;BMP280;16051;53.024;8.630;2022-11-04T16:50:41;100859.31;;;11.64
27715;BMP280;16051;53.024;8.630;2022-11-04T16:54:46;100865.22;;;11.57
27715;BMP280;16051;53.024;8.630;2022-11-04T16:58:49;100868.69;;;11.43
27715;BMP280;16051;53.024;8.630;2022-11-04T17:02:53;100869.19;;;11.42
27715;BMP280;16051;53.024;8.630;2022-11-04T17:06:55;100868.19;;;11.30
27715;BMP280;16051;53.024;8.630;2022-11-04T17:10:57;100876.22;;;11.28
27715;BMP280;16051;53.024;8.630;2022-11-04T17:15:19;100886.09;;;11.20
27715;BMP280;16051;53.024;8.630;2022-11-04T17:19:31;100887.41;;;11.10
27715;BMP280;16051;53.024;8.630;2022-11-04T17:23:34;100885.16;;;10.99
27715;BMP280;16051;53.024;8.630;2022-11-04T17:27:38;100896.56;;;10.92
27715;BMP280;16051;53.024;8.630;2022-11-04T17:31:45;100890.31;;;10.82
27715;BMP280;16051;53.024;8.630;2022-11-04T17:35:52;100892.53;;;10.69
27715;BMP280;16051;53.024;8.630;2022-11-04T17:39:55;100886.56;;;10.62
27715;BMP280;16051;53.024;8.630;2022-11-04T17:44:04;100898.56;;;10.59
27715;BMP280;16051;53.024;8.630;2022-11-04T17:48:05;100905.34;;;10.49
27715;BMP280;16051;53.024;8.630;2022-11-04T17:52:09;100896.94;;;10.43
27715;BMP280;16051;53.024;8.630;2022-11-04T17:56:13;100897.88;;;10.40
27715;BMP280;16051;53.024;8.630;2022-11-04T18:00:16;100908.91;;;10.31
27715;BMP280;16051;53.024;8.630;2022-11-04T18:04:21;100924.75;;;10.30
27715;BMP280;16051;53.024;8.630;2022-11-04T18:08:29;100929.97;;;10.19
27715;BMP280;16051;53.024;8.630;2022-11-04T18:12:32;100928.59;;;10.15
27715;BMP280;16051;53.024;8.630;2022-11-04T18:16:42;100944.41;;;10.14
27715;BMP280;16051;53.024;8.630;2022-11-04T18:20:45;100940.09;;;10.04
27715;BMP280;16051;53.024;8.630;2022-11-04T18:24:55;100948.97;;;9.99
27715;BMP280;16051;53.024;8.630;2022-11-04T18:28:57;100947.16;;;9.96
27715;BMP280;16051;53.024;8.630;2022-11-04T18:32:59;100942.38;;;9.87
27715;BMP280;16051;53.024;8.630;2022-11-04T18:37:01;100952.69;;;9.87
27715;BMP280;16051;53.024;8.630;2022-11-04T18:41:05;100961.25;;;9.80
27715;BMP280;16051;53.024;8.630;2022-11-04T18:45:23;100958.03;;;9.72
27715;BMP280;16051;53.024;8.630;2022-11-04T18:49:32;100969.53;;;9.71
27715;BMP280;16051;53.024;8.630;2022-11-04T18:53:34;100966.16;;;9.67
27715;BMP280;16051;53.024;8.630;2022-11-04T18:57:39;100966.00;;;9.61
27715;BMP280;16051;53.024;8.630;2022-11-04T19:01:48;100963.53;;;9.54
27715;BMP280;16051;53.024;8.630;2022-11-04T19:05:52;100966.13;;;9.49
27715;BMP280;16051;53.024;8.630;2022-11-04T19:09:54;100972.88;;;9.48
27715;BMP280;16051;53.024;8.630;2022-11-04T19:14:09;100979.28;;;9.45
27715;BMP280;16051;53.024;8.630;2022-11-04T19:18:12;100982.66;;;9.39
27715;BMP280;16051;53.024;8.630;2022-11-04T19:22:26;100988.19;;;9.39
27715;BMP280;16051;53.024;8.630;2022-11-04T19:26:33;100992.44;;;9.31
27715;BMP280;16051;53.024;8.630;2022-11-04T19:30:55;100996.84;;;9.20
27715;BMP280;16051;53.024;8.630;2022-11-04T19:34:58;100995.44;;;9.15
27715;BMP280;16051;53.024;8.630;2022-11-04T19:39:00;101010.13;;;9.12
27715;BMP280;16051;53.024;8.630;2022-11-04T19:43:02;100998.19;;;9.06
27715;BMP280;16051;53.024;8.630;2022-11-04T19:47:12;101010.13;;;9.03
27715;BMP280;16051;53.024;8.630;2022-11-04T19:51:16;101009.78;;;9.01
27715;BMP280;16051;53.024;8.630;2022-11-04T19:55:18;101013.47;;;8.98
27715;BMP280;16051;53.024;8.630;2022-11-04T19:59:20;101025.66;;;8.88
27715;BMP280;16051;53.024;8.630;2022-11-04T20:03:28;101028.09;;;8.86
27715;BMP280;16051;53.024;8.630;2022-11-04T20:07:30;101033.28;;;8.84
27715;BMP280;16051;53.024;8.630;2022-11-04T20:11:45;101033.13;;;8.78
27715;BMP280;16051;53.024;8.630;2022-11-04T20:16:15;101038.91;;;8.71
27715;BMP280;16051;53.024;8.630;2022-11-04T20:20:19;101045.75;;;8.67
27715;BMP280;16051;53.024;8.630;2022-11-04T20:24:45;101046.66;;;8.64
27715;BMP280;16051;53.024;8.630;2022-11-04T20:28:48;101059.00;;;8.59
27715;BMP280;16051;53.024;8.630;2022-11-04T20:32:50;101070.78;;;8.60
27715;BMP280;16051;53.024;8.630;2022-11-04T20:37:04;101078.06;;;8.54
27715;BMP280;16051;53.024;8.630;2022-11-04T20:41:09;101076.69;;;8.49
27715;BMP280;16051;53.024;8.630;2022-11-04T20:45:18;101078.66;;;8.49
27715;BMP280;16051;53.024;8.630;2022-11-04T20:49:20;101097.53;;;8.37
27715;BMP280;16051;53.024;8.630;2022-11-04T20:53:24;101102.94;;;8.28
27715;BMP280;16051;53.024;8.630;2022-11-04T20:57:26;101110.44;;;8.28
27715;BMP280;16051;53.024;8.630;2022-11-04T21:01:31;101119.13;;;8.26
27715;BMP280;16051;53.024;8.630;2022-11-04T21:05:33;101116.63;;;8.19
27715;BMP280;16051;53.024;8.630;2022-11-04T21:09:37;101127.75;;;8.16
27715;BMP280;16051;53.024;8.630;2022-11-04T21:13:39;101131.06;;;8.11
27715;BMP280;16051;53.024;8.630;2022-11-04T21:17:46;101137.78;;;8.10
27715;BMP280;16051;53.024;8.630;2022-11-04T21:21:48;101144.16;;;8.07
27715;BMP280;16051;53.024;8.630;2022-11-04T21:36:27;101146.16;;;7.93
27715;BMP280;16051;53.024;8.630;2022-11-04T21:46:21;101152.56;;;7.90
27715;BMP280;16051;53.024;8.630;2022-11-04T22:49:10;101211.31;;;7.59
27715;BMP280;16051;53.024;8.630;2022-11-04T22:53:39;101208.97;;;7.57
27715;BMP280;16051;53.024;8.630;2022-11-04T22:57:41;101213.03;;;7.53
27715;BMP280;16051;53.024;8.630;2022-11-04T23:01:43;101217.78;;;7.52
27715;BMP280;16051;53.024;8.630;2022-11-04T23:16:33;101226.16;;;7.49
27715;BMP280;16051;53.024;8.630;2022-11-04T23:20:52;101238.34;;;7.48
27715;BMP280;16051;53.024;8.630;2022-11-04T23:25:25;101241.63;;;7.42
27715;BMP280;16051;53.024;8.630;2022-11-04T23:29:26;101238.88;;;7.42
27715;BMP280;16051;53.024;8.630;2022-11-04T23:33:52;101239.41;;;7.37
27715;BMP280;16051;53.024;8.630;2022-11-04T23:38:12;101251.72;;;7.33
27715;BMP280;16051;53.024;8.630;2022-11-04T23:47:32;101253.66;;;7.20
27715;BMP280;16051;53.024;8.630;2022-11-04T23:51:53;101256.63;;;7.25
27715;BMP280;16051;53.024;8.630;2022-11-04T23:56:13;101257.84;;;7.24
